Time;durP1;ratioP1;P1;durP2;ratioP2;P2;SDS_P1;SDS_P2;PMS_P1;PMS_P2;Temp;Humidity;BMP_temperature;BMP_pressure;BME280_temperature;BME280_humidity;BME280_pressure;Samples;Min_cycle;Max_cycle;Signal;HPM_P1;HPM_P2
2024/04/08 00:00:28;;;;;;;11.82;3.88;;;;;;;;;;5073105;28;20028;-68
2024/04/08 00:02:54;;;;;;;10.45;3.70;;;;;;;;;;5073052;28;20050;-68
2024/04/08 00:05:21;;;;;;;16.95;4.28;;;;;;;;;;5072730;28;20547;-68
2024/04/08 00:07:47;;;;;;;16.63;4.07;;;;;;;;;;5091162;28;20139;-68
2024/04/08 00:10:14;;;;;;;10.88;3.30;;;;;;;;;;5072473;28;20036;-69
2024/04/08 00:12:44;;;;;;;7.03;3.92;;;;;;;;;;5056176;28;20181;-69
2024/04/08 00:15:11;;;;;;;11.13;3.67;;;;;;;;;;5091185;28;20527;-68
2024/04/08 00:17:37;;;;;;;13.45;4.82;;;;;;;;;;5090018;28;20073;-67
2024/04/08 00:20:04;;;;;;;9.95;3.40;;;;;;;;;;5072162;28;20036;-68
2024/04/08 00:22:30;;;;;;;9.75;3.67;;;;;;;;;;5072499;28;20052;-68
2024/04/08 00:24:55;;;;;;;10.02;3.45;;;;;;;;;;5072139;28;20055;-68
2024/04/08 00:27:21;;;;;;;12.05;3.55;;;;;;;;;;5072419;28;20032;-68
2024/04/08 00:29:46;;;;;;;9.20;3.58;;;;;;;;;;5090681;28;20028;-68
2024/04/08 00:32:13;;;;;;;11.57;3.92;;;;;;;;;;5090837;28;20040;-72
2024/04/08 00:34:39;;;;;;;10.18;4.28;;;;;;;;;;5091059;28;20024;-71
2024/04/08 00:37:07;;;;;;;10.23;4.63;;;;;;;;;;5091566;28;20042;-73
2024/04/08 00:39:33;;;;;;;10.30;3.95;;;;;;;;;;5091160;28;20111;-71
2024/04/08 00:42:00;;;;;;;13.38;3.83;;;;;;;;;;5074382;28;20046;-72
2024/04/08 00:44:27;;;;;;;15.75;4.22;;;;;;;;;;5058777;28;20028;-71
2024/04/08 00:46:53;;;;;;;11.90;4.85;;;;;;;;;;5094855;28;20138;-72
2024/04/08 00:49:19;;;;;;;12.10;3.88;;;;;;;;;;5078932;28;20475;-72
2024/04/08 00:51:45;;;;;;;16.23;4.22;;;;;;;;;;5079165;28;20028;-72
2024/04/08 00:54:11;;;;;;;14.27;5.13;;;;;;;;;;5073557;28;20031;-73
2024/04/08 00:56:38;;;;;;;8.68;3.97;;;;;;;;;;5072057;28;20028;-72
2024/04/08 00:59:06;;;;;;;12.48;4.40;;;;;;;;;;5090495;28;20471;-71
2024/04/08 01:01:32;;;;;;;10.10;3.35;;;;;;;;;;5072552;28;20031;-72
2024/04/08 01:03:58;;;;;;;10.15;3.60;;;;;;;;;;5090429;28;20020;-71
2024/04/08 01:06:24;;;;;;;9.05;3.63;;;;;;;;;;5072840;28;20061;-72
2024/04/08 01:08:50;;;;;;;17.00;4.05;;;;;;;;;;5072624;28;20063;-72
2024/04/08 01:11:16;;;;;;;6.07;3.67;;;;;;;;;;5071929;28;20019;-73
2024/04/08 01:13:42;;;;;;;15.68;3.90;;;;;;;;;;5090269;28;20043;-72
2024/04/08 01:16:08;;;;;;;11.43;4.05;;;;;;;;;;5055785;28;20035;-71
2024/04/08 01:18:33;;;;;;;10.10;3.55;;;;;;;;;;5071843;28;20547;-72
2024/04/08 01:21:00;;;;;;;9.18;4.13;;;;;;;;;;5090428;28;20078;-72
2024/04/08 01:23:28;;;;;;;10.52;3.80;;;;;;;;;;5055211;28;20078;-71
2024/04/08 01:25:54;;;;;;;10.75;3.60;;;;;;;;;;5072028;28;20433;-70
2024/04/08 01:28:20;;;;;;;8.38;3.85;;;;;;;;;;5090097;28;20043;-73
2024/04/08 01:30:47;;;;;;;10.98;3.97;;;;;;;;;;5092964;28;20081;-73
2024/04/08 01:33:12;;;;;;;8.35;3.33;;;;;;;;;;5076090;28;20024;-73
2024/04/08 01:35:38;;;;;;;14.68;4.57;;;;;;;;;;5094211;28;20109;-71
2024/04/08 01:38:03;;;;;;;11.27;4.15;;;;;;;;;;5094118;28;20051;-72
2024/04/08 01:40:29;;;;;;;9.65;4.18;;;;;;;;;;5075603;28;20086;-72
2024/04/08 01:42:54;;;;;;;15.18;4.65;;;;;;;;;;5094039;28;20028;-72
2024/04/08 01:45:20;;;;;;;12.90;4.82;;;;;;;;;;5093579;28;20060;-72
2024/04/08 01:47:46;;;;;;;9.95;4.00;;;;;;;;;;5075569;28;20368;-72
2024/04/08 01:50:11;;;;;;;10.57;4.28;;;;;;;;;;5093694;28;20039;-71
2024/04/08 01:52:37;;;;;;;10.18;3.72;;;;;;;;;;5075771;28;20036;-71
2024/04/08 01:55:03;;;;;;;11.23;3.70;;;;;;;;;;5093696;28;20085;-72
2024/04/08 01:57:28;;;;;;;10.98;3.65;;;;;;;;;;5093502;28;20110;-70
2024/04/08 01:59:54;;;;;;;13.57;4.70;;;;;;;;;;5093945;28;20028;-71
2024/04/08 02:02:19;;;;;;;11.50;4.10;;;;;;;;;;5094144;28;20047;-71
2024/04/08 02:04:45;;;;;;;14.82;3.65;;;;;;;;;;5093850;28;20027;-73
2024/04/08 02:07:11;;;;;;;20.88;8.25;;;;;;;;;;5093941;28;20075;-73
2024/04/08 02:09:36;;;;;;;10.20;4.35;;;;;;;;;;5093590;28;20059;-72
2024/04/08 02:12:02;;;;;;;28.40;7.22;;;;;;;;;;5094295;28;20110;-72
2024/04/08 02:14:28;;;;;;;23.88;6.97;;;;;;;;;;5094541;28;20066;-73
2024/04/08 02:16:53;;;;;;;21.05;6.45;;;;;;;;;;5094591;28;20024;-70
2024/04/08 02:19:19;;;;;;;18.23;5.82;;;;;;;;;;5094623;28;20028;-69
2024/04/08 02:21:45;;;;;;;12.60;4.07;;;;;;;;;;5095285;28;20020;-72
2024/04/08 02:24:12;;;;;;;10.05;4.32;;;;;;;;;;5096490;28;20645;-73
2024/04/08 02:26:37;;;;;;;12.68;4.40;;;;;;;;;;5097342;28;20051;-71
2024/04/08 02:29:03;;;;;;;7.80;3.65;;;;;;;;;;5079705;28;20024;-72
2024/04/08 02:31:29;;;;;;;14.43;3.78;;;;;;;;;;5080002;28;20391;-72
2024/04/08 02:33:55;;;;;;;17.17;3.92;;;;;;;;;;5098189;28;20031;-73
2024/04/08 02:36:21;;;;;;;6.18;3.35;;;;;;;;;;5081763;28;20031;-72
2024/04/08 02:38:46;;;;;;;8.30;4.00;;;;;;;;;;5078020;28;20042;-74
2024/04/08 02:41:12;;;;;;;10.73;4.25;;;;;;;;;;5078309;28;20028;-73
2024/04/08 02:43:37;;;;;;;10.68;4.47;;;;;;;;;;5095059;28;20126;-72
2024/04/08 02:46:03;;;;;;;9.00;4.13;;;;;;;;;;5096151;28;20658;-73
2024/04/08 02:48:29;;;;;;;10.65;3.80;;;;;;;;;;5096016;28;20114;-72
2024/04/08 02:50:54;;;;;;;14.25;4.72;;;;;;;;;;5077187;28;20061;-73
2024/04/08 02:53:22;;;;;;;15.00;5.03;;;;;;;;;;5094213;28;20461;-73
2024/04/08 02:55:47;;;;;;;12.70;5.35;;;;;;;;;;5094007;28;20031;-72
2024/04/08 02:58:13;;;;;;;15.55;5.32;;;;;;;;;;5093420;28;20035;-73
2024/04/08 03:00:38;;;;;;;13.00;5.22;;;;;;;;;;5093110;28;20060;-74
2024/04/08 03:03:05;;;;;;;17.25;5.53;;;;;;;;;;5092691;28;20478;-73
2024/04/08 03:05:30;;;;;;;14.63;5.78;;;;;;;;;;5073934;28;20048;-73
2024/04/08 03:07:56;;;;;;;21.08;5.70;;;;;;;;;;5074098;28;20176;-73
2024/04/08 03:10:22;;;;;;;19.25;5.68;;;;;;;;;;5074274;28;20503;-72
2024/04/08 03:12:48;;;;;;;19.85;6.38;;;;;;;;;;5074900;28;20126;-73
2024/04/08 03:15:14;;;;;;;20.35;6.40;;;;;;;;;;5093082;28;20464;-72
2024/04/08 03:17:40;;;;;;;16.20;5.60;;;;;;;;;;5059138;28;20036;-70
2024/04/08 03:20:06;;;;;;;21.95;6.22;;;;;;;;;;5075770;28;20410;-72
2024/04/08 03:22:32;;;;;;;12.73;6.03;;;;;;;;;;5092108;28;20483;-73
2024/04/08 03:24:57;;;;;;;16.73;5.40;;;;;;;;;;5091948;28;20055;-70
2024/04/08 03:27:23;;;;;;;18.13;5.57;;;;;;;;;;5091852;28;20479;-70
2024/04/08 03:29:52;;;;;;;21.08;5.80;;;;;;;;;;5057264;28;20028;-71
2024/04/08 03:32:17;;;;;;;14.85;5.60;;;;;;;;;;5073794;28;20028;-68
2024/04/08 03:34:43;;;;;;;12.50;5.88;;;;;;;;;;5091994;28;20491;-67
2024/04/08 03:37:09;;;;;;;12.65;4.85;;;;;;;;;;5057259;28;20077;-67
2024/04/08 03:39:35;;;;;;;9.52;4.68;;;;;;;;;;5073380;28;20036;-68
2024/04/08 03:42:01;;;;;;;14.63;4.65;;;;;;;;;;5056891;28;20450;-69
2024/04/08 03:44:26;;;;;;;11.50;4.00;;;;;;;;;;5091269;28;20380;-67
2024/04/08 03:46:52;;;;;;;15.10;4.22;;;;;;;;;;5072841;28;20419;-67
2024/04/08 03:49:17;;;;;;;14.50;4.60;;;;;;;;;;5091277;28;20039;-67
2024/04/08 03:51:43;;;;;;;26.58;5.80;;;;;;;;;;5072858;28;20482;-68
2024/04/08 03:54:08;;;;;;;14.68;4.03;;;;;;;;;;5091311;28;20028;-68
2024/04/08 03:56:34;;;;;;;10.93;4.15;;;;;;;;;;5091071;28;20388;-66
2024/04/08 03:58:59;;;;;;;23.77;5.50;;;;;;;;;;5056309;28;20621;-68
2024/04/08 04:01:25;;;;;;;10.65;4.63;;;;;;;;;;5072778;28;20030;-69
2024/04/08 04:03:51;;;;;;;12.50;4.25;;;;;;;;;;5072592;28;20028;-72
2024/04/08 04:06:16;;;;;;;20.20;6.22;;;;;;;;;;5072768;28;20472;-71
2024/04/08 04:08:42;;;;;;;15.05;5.05;;;;;;;;;;5072116;28;20036;-72
2024/04/08 04:11:08;;;;;;;15.95;6.15;;;;;;;;;;5090569;28;20471;-72
2024/04/08 04:13:34;;;;;;;16.63;5.72;;;;;;;;;;5072259;28;20070;-71
2024/04/08 04:16:03;;;;;;;13.75;5.63;;;;;;;;;;5072336;28;20070;-73
2024/04/08 04:18:29;;;;;;;15.80;4.90;;;;;;;;;;5090541;28;20404;-72
2024/04/08 04:20:55;;;;;;;21.35;6.35;;;;;;;;;;5072606;28;20028;-70
2024/04/08 04:23:22;;;;;;;27.17;6.78;;;;;;;;;;5091086;28;20447;-69
2024/04/08 04:25:53;;;;;;;11.38;5.75;;;;;;;;;;5089962;28;20035;-66
2024/04/08 04:28:19;;;;;;;27.70;6.13;;;;;;;;;;5072467;28;20450;-67
2024/04/08 04:30:55;;;;;;;18.73;5.97;;;;;;;;;;5089938;28;20110;-68
2024/04/08 04:33:20;;;;;;;25.20;5.80;;;;;;;;;;5090680;28;20453;-68
2024/04/08 04:35:53;;;;;;;19.58;4.75;;;;;;;;;;5090781;28;20028;-67
2024/04/08 04:38:18;;;;;;;16.60;5.70;;;;;;;;;;5072430;28;20154;-67
2024/04/08 04:40:44;;;;;;;19.63;4.75;;;;;;;;;;5090298;28;20031;-67
2024/04/08 04:43:10;;;;;;;18.42;5.45;;;;;;;;;;5072220;28;20464;-67
2024/04/08 04:45:36;;;;;;;15.55;5.18;;;;;;;;;;5071803;28;20703;-68
2024/04/08 04:48:02;;;;;;;18.00;5.10;;;;;;;;;;5072418;28;20162;-68
2024/04/08 04:50:30;;;;;;;11.43;4.82;;;;;;;;;;5072138;28;20578;-68
2024/04/08 04:52:56;;;;;;;21.35;4.80;;;;;;;;;;5073014;28;20485;-67
2024/04/08 04:55:21;;;;;;;22.00;5.47;;;;;;;;;;5072915;28;20055;-67
2024/04/08 04:57:47;;;;;;;16.10;5.22;;;;;;;;;;5090989;28;20487;-68
2024/04/08 05:00:13;;;;;;;19.48;6.22;;;;;;;;;;5094664;28;20108;-67
2024/04/08 05:02:38;;;;;;;15.65;5.32;;;;;;;;;;5104695;28;20028;-69
2024/04/08 05:05:04;;;;;;;15.75;5.68;;;;;;;;;;5087880;28;20092;-68
2024/04/08 05:07:29;;;;;;;17.38;5.50;;;;;;;;;;5097446;28;20035;-69
2024/04/08 05:09:57;;;;;;;19.25;5.38;;;;;;;;;;5096670;28;20038;-68
2024/04/08 05:12:22;;;;;;;18.98;5.38;;;;;;;;;;5111733;28;20023;-68
2024/04/08 05:14:48;;;;;;;17.95;6.03;;;;;;;;;;5074626;28;20028;-69
2024/04/08 05:17:14;;;;;;;13.45;6.15;;;;;;;;;;5075764;28;20028;-68
2024/04/08 05:19:39;;;;;;;16.20;6.03;;;;;;;;;;5069327;28;20034;-68
2024/04/08 05:22:05;;;;;;;25.02;6.07;;;;;;;;;;5083972;28;20103;-69
2024/04/08 05:24:31;;;;;;;15.85;8.00;;;;;;;;;;5094785;28;20499;-70
2024/04/08 05:26:56;;;;;;;22.90;9.10;;;;;;;;;;5096118;28;20047;-68
2024/04/08 05:29:25;;;;;;;21.55;6.65;;;;;;;;;;5094361;28;20553;-69
2024/04/08 05:31:50;;;;;;;19.85;8.10;;;;;;;;;;5075813;28;20035;-68
2024/04/08 05:34:16;;;;;;;15.98;6.78;;;;;;;;;;5109840;28;20031;-68
2024/04/08 05:36:42;;;;;;;17.65;7.03;;;;;;;;;;5104841;28;20451;-69
2024/04/08 05:39:07;;;;;;;15.55;6.35;;;;;;;;;;5075712;28;20407;-72
2024/04/08 05:41:33;;;;;;;17.67;7.53;;;;;;;;;;5071213;28;20424;-69
2024/04/08 05:43:58;;;;;;;18.52;7.07;;;;;;;;;;5079132;28;20023;-67
2024/04/08 05:46:24;;;;;;;15.55;5.72;;;;;;;;;;5093663;28;20460;-69
2024/04/08 05:48:50;;;;;;;26.45;6.95;;;;;;;;;;5075423;28;20379;-68
2024/04/08 05:51:17;;;;;;;15.93;6.57;;;;;;;;;;5070367;28;20544;-66
2024/04/08 05:53:43;;;;;;;26.70;8.63;;;;;;;;;;5087169;28;20030;-70
2024/04/08 05:56:13;;;;;;;26.30;7.43;;;;;;;;;;5066712;28;20048;-68
2024/04/08 05:58:39;;;;;;;28.73;7.70;;;;;;;;;;5070283;28;20664;-68
2024/04/08 06:01:06;;;;;;;16.75;6.47;;;;;;;;;;5090916;28;20038;-67
2024/04/08 06:03:31;;;;;;;24.00;8.07;;;;;;;;;;5072446;28;20051;-70
2024/04/08 06:05:58;;;;;;;27.95;7.40;;;;;;;;;;5063442;28;20476;-68
2024/04/08 06:08:24;;;;;;;33.97;7.07;;;;;;;;;;5081174;28;20459;-69
2024/04/08 06:10:53;;;;;;;28.83;8.32;;;;;;;;;;5066754;28;20063;-68
2024/04/08 06:13:21;;;;;;;20.48;10.45;;;;;;;;;;5085223;28;20194;-69
2024/04/08 06:15:48;;;;;;;14.38;7.35;;;;;;;;;;5061422;28;20074;-70
2024/04/08 06:18:13;;;;;;;16.58;7.43;;;;;;;;;;5065617;28;20032;-70
2024/04/08 06:20:39;;;;;;;21.48;7.28;;;;;;;;;;5068980;28;20035;-70
2024/04/08 06:23:05;;;;;;;22.48;7.60;;;;;;;;;;5065079;28;20460;-68
2024/04/08 06:25:32;;;;;;;16.60;7.47;;;;;;;;;;5082607;28;20040;-70
2024/04/08 06:27:57;;;;;;;12.82;6.82;;;;;;;;;;5085566;28;20032;-69
2024/04/08 06:30:24;;;;;;;22.98;8.25;;;;;;;;;;5067893;28;20036;-69
2024/04/08 06:32:49;;;;;;;20.50;7.47;;;;;;;;;;5072645;28;20035;-69
2024/04/08 06:35:19;;;;;;;19.77;7.10;;;;;;;;;;5069371;28;20038;-69
2024/04/08 06:37:45;;;;;;;23.30;7.68;;;;;;;;;;5050946;28;20483;-67
2024/04/08 06:40:11;;;;;;;19.98;7.95;;;;;;;;;;5070202;28;20123;-72
2024/04/08 06:42:36;;;;;;;24.20;8.23;;;;;;;;;;5082972;28;20036;-68
2024/04/08 06:45:02;;;;;;;16.30;7.15;;;;;;;;;;5065953;28;20032;-67
2024/04/08 06:47:28;;;;;;;24.85;9.10;;;;;;;;;;5085274;28;20038;-68
2024/04/08 06:49:54;;;;;;;29.55;12.23;;;;;;;;;;5068230;28;20032;-70
2024/04/08 06:52:20;;;;;;;33.15;11.13;;;;;;;;;;5064679;28;20024;-70
2024/04/08 06:54:47;;;;;;;17.50;8.15;;;;;;;;;;5080474;28;20153;-69
2024/04/08 06:57:14;;;;;;;30.17;8.90;;;;;;;;;;5076767;28;20039;-69
2024/04/08 06:59:40;;;;;;;22.73;9.20;;;;;;;;;;5061744;28;20640;-68
2024/04/08 07:02:06;;;;;;;32.97;9.35;;;;;;;;;;5089186;28;20032;-69
2024/04/08 07:04:32;;;;;;;18.02;8.60;;;;;;;;;;5079811;28;20595;-69
2024/04/08 07:07:01;;;;;;;22.85;7.88;;;;;;;;;;5068322;28;20133;-68
2024/04/08 07:09:27;;;;;;;19.45;7.80;;;;;;;;;;5071357;28;20039;-71
2024/04/08 07:11:53;;;;;;;17.80;7.53;;;;;;;;;;5057407;28;20408;-71
2024/04/08 07:14:18;;;;;;;26.05;8.48;;;;;;;;;;5064395;28;20036;-70
2024/04/08 07:16:45;;;;;;;25.80;7.82;;;;;;;;;;5074152;28;20025;-68
2024/04/08 07:19:11;;;;;;;27.23;7.30;;;;;;;;;;5067900;28;20031;-71
2024/04/08 07:21:37;;;;;;;24.70;8.45;;;;;;;;;;5079638;28;20024;-69
2024/04/08 07:24:02;;;;;;;19.00;8.25;;;;;;;;;;5083609;28;20260;-70
2024/04/08 07:26:28;;;;;;;14.43;6.47;;;;;;;;;;5061858;28;20024;-70
2024/04/08 07:28:53;;;;;;;10.57;6.85;;;;;;;;;;5076760;28;20039;-69
2024/04/08 07:31:19;;;;;;;18.48;6.72;;;;;;;;;;5070032;28;20059;-68
2024/04/08 07:33:44;;;;;;;15.40;5.68;;;;;;;;;;5063417;28;20032;-72
2024/04/08 07:36:10;;;;;;;15.85;6.05;;;;;;;;;;5079692;28;20453;-68
2024/04/08 07:38:36;;;;;;;27.23;5.80;;;;;;;;;;5077260;28;20035;-68
2024/04/08 07:41:01;;;;;;;16.30;6.38;;;;;;;;;;5083309;28;20369;-70
2024/04/08 07:43:30;;;;;;;23.58;7.22;;;;;;;;;;5055529;28;20028;-70
2024/04/08 07:45:55;;;;;;;15.65;6.05;;;;;;;;;;5086538;28;20028;-70
2024/04/08 07:49:55;;;;;;;25.67;11.10;;;;;;;;;;5487041;25;20311;-68
2024/04/08 07:52:20;;;;;;;24.75;7.50;;;;;;;;;;5465469;26;20006;-70
2024/04/08 07:54:46;;;;;;;25.90;7.32;;;;;;;;;;5435131;26;20014;-71
2024/04/08 07:57:11;;;;;;;23.02;6.88;;;;;;;;;;5482737;26;20009;-70
2024/04/08 07:59:37;;;;;;;18.27;6.45;;;;;;;;;;5435035;26;20488;-69
2024/04/08 08:02:03;;;;;;;20.88;6.47;;;;;;;;;;5462682;26;19999;-69
2024/04/08 08:04:28;;;;;;;22.10;6.45;;;;;;;;;;5467714;26;20035;-69
2024/04/08 08:06:54;;;;;;;14.25;5.72;;;;;;;;;;5435095;26;19994;-68
2024/04/08 08:09:20;;;;;;;12.70;5.43;;;;;;;;;;5426323;26;20127;-69
2024/04/08 08:11:45;;;;;;;13.45;4.90;;;;;;;;;;5452861;26;20364;-70
2024/04/08 08:14:11;;;;;;;19.00;4.95;;;;;;;;;;5466420;26;20372;-69
2024/04/08 08:16:36;;;;;;;21.98;6.45;;;;;;;;;;5454925;26;19999;-69
2024/04/08 08:19:02;;;;;;;10.75;5.25;;;;;;;;;;5370111;26;20124;-68
2024/04/08 08:21:27;;;;;;;8.98;4.88;;;;;;;;;;5446460;26;20003;-69
2024/04/08 08:23:53;;;;;;;9.55;5.15;;;;;;;;;;5420922;26;19999;-69
2024/04/08 08:26:19;;;;;;;10.50;4.53;;;;;;;;;;5419489;26;20006;-70
2024/04/08 08:28:49;;;;;;;12.48;4.50;;;;;;;;;;5365871;26;20007;-70
2024/04/08 08:31:16;;;;;;;6.20;4.03;;;;;;;;;;5463162;26;20073;-69
2024/04/08 08:33:42;;;;;;;34.92;9.38;;;;;;;;;;5446599;26;20295;-69
2024/04/08 08:36:07;;;;;;;11.93;4.50;;;;;;;;;;5424050;26;20038;-70
2024/04/08 08:38:33;;;;;;;11.07;4.90;;;;;;;;;;5442395;26;20002;-70
2024/04/08 08:41:07;;;;;;;9.43;3.72;;;;;;;;;;5418460;26;20052;-70
2024/04/08 08:43:37;;;;;;;11.23;5.05;;;;;;;;;;5430774;26;20425;-69
2024/04/08 08:46:04;;;;;;;15.75;4.80;;;;;;;;;;5402322;26;20010;-68
2024/04/08 08:48:37;;;;;;;10.32;4.15;;;;;;;;;;5414025;26;20061;-69
2024/04/08 08:51:12;;;;;;;13.60;4.05;;;;;;;;;;5416820;26;20014;-70
2024/04/08 08:53:47;;;;;;;9.88;3.53;;;;;;;;;;5424426;26;19998;-68
2024/04/08 08:56:19;;;;;;;15.57;3.80;;;;;;;;;;5428054;26;20016;-68
2024/04/08 08:58:55;;;;;;;8.00;3.22;;;;;;;;;;5418762;26;20046;-71
2024/04/08 09:01:21;;;;;;;7.65;3.80;;;;;;;;;;5383011;26;20015;-69
2024/04/08 09:03:49;;;;;;;10.55;4.63;;;;;;;;;;5449296;26;20125;-68
2024/04/08 09:06:15;;;;;;;11.48;3.92;;;;;;;;;;5409494;26;20010;-68
2024/04/08 09:08:53;;;;;;;18.23;5.65;;;;;;;;;;5421579;26;20697;-69
2024/04/08 09:11:18;;;;;;;16.17;4.57;;;;;;;;;;5418449;26;20114;-68
2024/04/08 09:13:49;;;;;;;9.48;4.75;;;;;;;;;;5449655;26;20103;-68
2024/04/08 09:16:24;;;;;;;11.20;4.30;;;;;;;;;;5415636;26;20018;-68
2024/04/08 09:18:50;;;;;;;13.55;4.20;;;;;;;;;;5380588;26;20119;-68
2024/04/08 09:21:15;;;;;;;11.35;4.57;;;;;;;;;;5414187;26;20003;-69
2024/04/08 09:23:42;;;;;;;8.32;3.72;;;;;;;;;;5412085;26;19999;-70
2024/04/08 09:26:11;;;;;;;8.93;3.72;;;;;;;;;;5409879;26;20525;-71
2024/04/08 09:28:36;;;;;;;5.45;3.60;;;;;;;;;;5402544;26;21176;-71
2024/04/08 09:31:02;;;;;;;18.92;5.35;;;;;;;;;;5406876;26;19999;-70
2024/04/08 09:33:28;;;;;;;18.95;4.40;;;;;;;;;;5418070;26;20458;-70
2024/04/08 09:35:55;;;;;;;17.98;5.18;;;;;;;;;;5397583;26;20018;-69
2024/04/08 09:38:21;;;;;;;11.20;4.22;;;;;;;;;;5394667;26;20071;-69
2024/04/08 09:40:49;;;;;;;5.07;3.60;;;;;;;;;;5397610;26;20005;-69
2024/04/08 09:43:15;;;;;;;7.38;4.45;;;;;;;;;;5403049;26;20107;-70
2024/04/08 09:45:43;;;;;;;22.55;5.45;;;;;;;;;;5407846;26;20467;-69
2024/04/08 09:48:12;;;;;;;8.13;4.40;;;;;;;;;;5395863;26;20005;-70
2024/04/08 09:50:44;;;;;;;8.20;4.15;;;;;;;;;;5403684;26;20033;-74
2024/04/08 09:53:10;;;;;;;9.23;3.90;;;;;;;;;;5388456;26;20039;-68
2024/04/08 09:55:40;;;;;;;5.97;3.83;;;;;;;;;;5422291;26;20335;-70
2024/04/08 09:58:08;;;;;;;9.65;3.88;;;;;;;;;;5419834;26;20020;-72
2024/04/08 10:00:36;;;;;;;14.70;5.60;;;;;;;;;;5425915;26;20013;-70
2024/04/08 10:03:10;;;;;;;12.15;4.10;;;;;;;;;;5392491;26;20005;-71
2024/04/08 10:05:37;;;;;;;9.27;4.70;;;;;;;;;;5400563;26;19999;-71
2024/04/08 10:08:03;;;;;;;11.07;5.35;;;;;;;;;;5399029;26;20118;-73
2024/04/08 10:10:29;;;;;;;10.50;4.97;;;;;;;;;;5433942;26;20003;-70
2024/04/08 10:12:58;;;;;;;15.20;4.57;;;;;;;;;;5409451;26;19996;-70
2024/04/08 10:15:32;;;;;;;23.63;10.02;;;;;;;;;;5379576;26;20010;-69
2024/04/08 10:18:00;;;;;;;12.90;7.47;;;;;;;;;;5428354;26;20078;-68
2024/04/08 10:20:27;;;;;;;7.88;3.92;;;;;;;;;;5435907;26;20049;-67
2024/04/08 10:22:53;;;;;;;10.27;4.20;;;;;;;;;;5422192;26;19999;-70
2024/04/08 10:25:38;;;;;;;14.00;4.90;;;;;;;;;;5437388;26;20006;-68
2024/04/08 10:28:33;;;;;;;7.63;3.10;;;;;;;;;;5430957;26;21024;-69
2024/04/08 10:31:03;;;;;;;7.30;3.40;;;;;;;;;;5376411;26;20022;-68
2024/04/08 10:33:45;;;;;;;6.95;3.90;;;;;;;;;;5414396;26;20006;-69
2024/04/08 10:36:10;;;;;;;13.57;3.85;;;;;;;;;;5402070;26;20453;-70
2024/04/08 10:38:36;;;;;;;6.70;3.95;;;;;;;;;;5403588;26;20003;-70
2024/04/08 10:41:08;;;;;;;6.45;3.63;;;;;;;;;;5402460;26;20108;-73
2024/04/08 10:43:35;;;;;;;14.57;4.20;;;;;;;;;;5421371;26;20011;-70
2024/04/08 10:46:17;;;;;;;7.22;3.10;;;;;;;;;;5393509;26;20014;-70
2024/04/08 10:48:44;;;;;;;10.65;4.35;;;;;;;;;;5407235;26;20002;-71
2024/04/08 10:51:12;;;;;;;11.88;5.28;;;;;;;;;;5435469;26;20026;-70
2024/04/08 10:53:42;;;;;;;8.75;3.95;;;;;;;;;;5416674;26;19998;-70
2024/04/08 10:56:09;;;;;;;7.07;4.15;;;;;;;;;;5402125;26;19998;-72
2024/04/08 10:58:34;;;;;;;10.95;4.38;;;;;;;;;;5402717;26;20017;-72
2024/04/08 11:01:03;;;;;;;8.57;3.83;;;;;;;;;;5400420;26;20093;-73
2024/04/08 11:03:31;;;;;;;10.02;3.40;;;;;;;;;;5399785;26;21707;-71
2024/04/08 11:05:57;;;;;;;17.83;3.70;;;;;;;;;;5399322;26;20073;-69
2024/04/08 11:08:24;;;;;;;5.60;3.10;;;;;;;;;;5405144;26;20074;-72
2024/04/08 11:10:50;;;;;;;11.07;3.25;;;;;;;;;;5405841;26;20812;-70
2024/04/08 11:13:15;;;;;;;8.38;3.15;;;;;;;;;;5400290;26;20415;-70
2024/04/08 11:15:47;;;;;;;8.30;3.63;;;;;;;;;;5430937;26;20010;-71
2024/04/08 11:18:13;;;;;;;10.18;4.15;;;;;;;;;;5400052;26;20022;-68
2024/04/08 11:20:38;;;;;;;8.00;4.10;;;;;;;;;;5433885;26;20002;-70
2024/04/08 11:23:05;;;;;;;10.45;3.78;;;;;;;;;;5403170;26;20003;-70
2024/04/08 11:25:30;;;;;;;5.25;3.50;;;;;;;;;;5374909;26;19999;-70
2024/04/08 11:27:58;;;;;;;7.60;3.13;;;;;;;;;;5393615;26;20002;-69
2024/04/08 11:30:23;;;;;;;7.22;3.20;;;;;;;;;;5441748;26;20199;-70
2024/04/08 11:32:50;;;;;;;5.00;3.00;;;;;;;;;;5410531;26;20125;-71
2024/04/08 11:35:16;;;;;;;10.02;3.25;;;;;;;;;;5391178;26;20433;-71
2024/04/08 11:37:42;;;;;;;7.82;4.47;;;;;;;;;;5405920;26;20017;-71
2024/04/08 11:40:11;;;;;;;6.35;3.90;;;;;;;;;;5441501;26;20145;-70
2024/04/08 11:42:36;;;;;;;5.00;3.15;;;;;;;;;;5411637;26;20011;-70
2024/04/08 11:45:06;;;;;;;7.68;3.50;;;;;;;;;;5433504;26;20309;-71
2024/04/08 11:47:31;;;;;;;8.10;3.38;;;;;;;;;;5399036;26;20042;-72
2024/04/08 11:49:57;;;;;;;10.10;3.33;;;;;;;;;;5409583;26;20021;-71
2024/04/08 11:52:23;;;;;;;7.80;3.03;;;;;;;;;;5444559;26;20008;-71
2024/04/08 11:54:48;;;;;;;2.95;2.65;;;;;;;;;;5401680;26;19998;-70
2024/04/08 11:57:15;;;;;;;8.18;3.42;;;;;;;;;;5408190;26;20002;-70
2024/04/08 11:59:41;;;;;;;8.40;3.45;;;;;;;;;;5371230;26;20079;-71
2024/04/08 12:02:08;;;;;;;8.13;3.20;;;;;;;;;;5404230;26;19999;-71
2024/04/08 12:04:34;;;;;;;15.90;3.60;;;;;;;;;;5404299;26;20512;-70
2024/04/08 12:07:06;;;;;;;13.77;3.63;;;;;;;;;;5444962;26;20013;-70
2024/04/08 12:09:31;;;;;;;15.32;10.18;;;;;;;;;;5376935;26;20023;-71
2024/04/08 12:11:57;;;;;;;10.27;4.03;;;;;;;;;;5437967;26;20478;-69
2024/04/08 12:14:24;;;;;;;21.40;5.55;;;;;;;;;;5405943;26;19999;-70
2024/04/08 12:16:55;;;;;;;9.43;2.95;;;;;;;;;;5426965;26;20795;-69
2024/04/08 12:19:22;;;;;;;8.90;3.30;;;;;;;;;;5431827;26;20506;-71
2024/04/08 12:21:48;;;;;;;6.00;2.83;;;;;;;;;;5406397;26;20074;-70
2024/04/08 12:24:13;;;;;;;4.43;3.10;;;;;;;;;;5399303;26;19999;-70
2024/04/08 12:26:39;;;;;;;3.35;2.50;;;;;;;;;;5405036;26;20029;-67
2024/04/08 12:29:04;;;;;;;8.82;4.05;;;;;;;;;;5396658;26;20047;-69
2024/04/08 12:31:30;;;;;;;5.28;2.95;;;;;;;;;;5409355;26;19998;-70
2024/04/08 12:33:58;;;;;;;7.45;3.45;;;;;;;;;;5419657;26;20401;-71
2024/04/08 12:36:24;;;;;;;5.15;2.72;;;;;;;;;;5434903;26;20042;-71
2024/04/08 12:38:50;;;;;;;7.07;2.70;;;;;;;;;;5433041;26;19994;-70
2024/04/08 12:41:15;;;;;;;7.20;4.03;;;;;;;;;;5457811;26;19999;-69
2024/04/08 12:43:44;;;;;;;15.98;4.40;;;;;;;;;;5380841;26;20039;-69
2024/04/08 12:46:09;;;;;;;9.48;3.40;;;;;;;;;;5444593;26;19998;-70
2024/04/08 12:48:35;;;;;;;10.15;2.67;;;;;;;;;;5442079;26;20027;-69
2024/04/08 12:51:03;;;;;;;4.97;2.65;;;;;;;;;;5373623;26;20021;-68
2024/04/08 12:53:29;;;;;;;7.40;3.38;;;;;;;;;;5377629;26;20085;-70
2024/04/08 12:55:56;;;;;;;11.10;3.33;;;;;;;;;;5433853;26;20055;-69
2024/04/08 12:58:22;;;;;;;12.85;3.85;;;;;;;;;;5379833;26;20003;-70
2024/04/08 13:00:51;;;;;;;4.65;2.67;;;;;;;;;;5398821;26;20011;-70
2024/04/08 13:03:16;;;;;;;4.88;2.53;;;;;;;;;;5402279;26;19998;-70
2024/04/08 13:05:42;;;;;;;5.75;2.40;;;;;;;;;;5408000;26;20013;-69
2024/04/08 13:08:08;;;;;;;7.18;2.88;;;;;;;;;;5427073;26;20053;-69
2024/04/08 13:10:33;;;;;;;3.35;2.50;;;;;;;;;;5407693;26;20034;-70
2024/04/08 13:12:59;;;;;;;8.00;3.08;;;;;;;;;;5436702;26;20014;-71
2024/04/08 13:15:24;;;;;;;6.60;2.20;;;;;;;;;;5409841;26;20014;-71
2024/04/08 13:17:50;;;;;;;8.07;2.85;;;;;;;;;;5415258;26;20006;-71
2024/04/08 13:20:19;;;;;;;8.27;2.88;;;;;;;;;;5448714;26;20066;-71
2024/04/08 13:22:45;;;;;;;7.78;2.85;;;;;;;;;;5438285;26;20009;-70
2024/04/08 13:25:10;;;;;;;6.13;2.90;;;;;;;;;;5416900;26;20312;-70
2024/04/08 13:27:36;;;;;;;6.93;3.28;;;;;;;;;;5439530;26;20023;-69
2024/04/08 13:30:01;;;;;;;7.82;2.40;;;;;;;;;;5442178;26;20006;-69
2024/04/08 13:32:27;;;;;;;4.18;2.40;;;;;;;;;;5449326;26;19999;-69
2024/04/08 13:34:53;;;;;;;7.45;2.25;;;;;;;;;;5429727;26;20104;-70
2024/04/08 13:37:20;;;;;;;8.48;3.20;;;;;;;;;;5405686;26;19998;-70
2024/04/08 13:39:45;;;;;;;6.15;2.58;;;;;;;;;;5440984;26;20312;-69
2024/04/08 13:42:11;;;;;;;4.65;2.40;;;;;;;;;;5404638;26;20019;-68
2024/04/08 13:44:36;;;;;;;4.88;2.42;;;;;;;;;;5409891;26;20007;-71
2024/04/08 13:47:02;;;;;;;3.72;2.30;;;;;;;;;;5441969;26;20208;-71
2024/04/08 13:49:28;;;;;;;6.75;2.28;;;;;;;;;;5396654;26;19995;-69
2024/04/08 13:51:57;;;;;;;7.60;2.53;;;;;;;;;;5388364;26;20004;-69
2024/04/08 13:54:28;;;;;;;4.20;2.20;;;;;;;;;;5400193;26;20424;-70
2024/04/08 13:56:54;;;;;;;5.40;2.78;;;;;;;;;;5408001;26;19999;-71
2024/04/08 13:59:21;;;;;;;8.30;2.40;;;;;;;;;;5421450;26;20047;-72
2024/04/08 14:01:46;;;;;;;6.50;2.47;;;;;;;;;;5402679;26;20027;-68
2024/04/08 14:04:14;;;;;;;3.00;2.08;;;;;;;;;;5443081;26;20003;-70
2024/04/08 14:06:39;;;;;;;7.45;1.95;;;;;;;;;;5407765;26;20131;-70
2024/04/08 14:09:06;;;;;;;3.17;1.92;;;;;;;;;;5406666;26;20071;-71
2024/04/08 14:11:33;;;;;;;6.85;2.50;;;;;;;;;;5376553;26;20003;-68
2024/04/08 14:13:58;;;;;;;7.68;2.63;;;;;;;;;;5432068;26;20006;-70
2024/04/08 14:16:24;;;;;;;6.95;2.03;;;;;;;;;;5402649;26;20085;-71
2024/04/08 14:18:51;;;;;;;4.45;2.42;;;;;;;;;;5431661;26;19999;-73
2024/04/08 14:21:17;;;;;;;8.40;3.47;;;;;;;;;;5426445;26;20547;-71
2024/04/08 14:23:43;;;;;;;8.77;2.65;;;;;;;;;;5438859;26;19999;-70
2024/04/08 14:26:12;;;;;;;2.25;2.03;;;;;;;;;;5435317;26;20600;-70
2024/04/08 14:28:44;;;;;;;4.30;1.98;;;;;;;;;;5425996;26;19994;-72
2024/04/08 14:31:12;;;;;;;4.38;1.73;;;;;;;;;;5412358;26;19995;-70